Time;durP1;ratioP1;P1;durP2;ratioP2;P2;SDS_P1;SDS_P2;PMS_P1;PMS_P2;Temp;Humidity;BMP_temperature;BMP_pressure;BME280_temperature;BME280_humidity;BME280_pressure;Samples;Min_cycle;Max_cycle;Signal;HPM_P1;HPM_P2
2021/04/03 04:54:55;;;;;;;27.70;11.48;;;;;;;20.89;35.06;156622.22;1735247;81;21182;-74
2021/04/03 04:57:28;;;;;;;26.97;11.80;;;;;;;20.99;34.96;156651.31;1710731;81;21523;-78
2021/04/03 05:00:03;;;;;;;26.87;12.68;;;;;;;21.05;34.74;156667.22;1687743;83;21900;-76
2021/04/03 05:02:37;;;;;;;19.98;9.33;;;;;;;21.17;34.46;156698.97;1667251;83;21270;-77
2021/04/03 05:05:10;;;;;;;20.37;9.18;;;;;;;21.33;34.14;156739.98;1713490;82;21546;-77
2021/04/03 05:07:42;;;;;;;18.80;8.43;;;;;;;21.38;33.95;156753.19;1693205;82;21241;-77
2021/04/03 05:10:15;;;;;;;20.95;8.68;;;;;;;21.42;33.74;156763.78;1664834;83;21740;-74
2021/04/03 05:12:47;;;;;;;23.02;9.20;;;;;;;21.38;33.61;156753.19;1706781;82;21333;-75
2021/04/03 05:15:19;;;;;;;20.45;9.88;;;;;;;21.39;33.59;156755.84;1688910;82;21301;-75
2021/04/03 05:17:51;;;;;;;18.30;9.13;;;;;;;21.22;33.60;156712.17;1665811;83;21260;-75
2021/04/03 05:20:24;;;;;;;20.15;9.75;;;;;;;21.20;33.69;156706.88;1710702;82;21294;-75
2021/04/03 05:22:56;;;;;;;21.57;9.43;;;;;;;21.18;33.82;156700.28;1688271;83;21391;-75
2021/04/03 05:25:29;;;;;;;18.48;8.55;;;;;;;21.24;33.89;156717.48;1669014;83;21237;-77
2021/04/03 05:28:01;;;;;;;19.65;8.43;;;;;;;21.34;33.94;156743.94;1713643;82;21320;-78
2021/04/03 05:30:38;;;;;;;20.02;9.38;;;;;;;21.35;34.07;156745.28;1688712;83;21307;-76
2021/04/03 05:33:20;;;;;;;20.68;9.80;;;;;;;21.41;34.06;156761.14;1669716;85;21412;-73
2021/04/03 05:35:52;;;;;;;17.32;8.13;;;;;;;21.40;34.14;156758.48;1697138;82;21270;-74
2021/04/03 05:38:24;;;;;;;19.42;9.15;;;;;;;21.42;34.29;156763.78;1713494;82;21306;-78
2021/04/03 05:40:57;;;;;;;20.60;9.95;;;;;;;21.50;34.29;156786.30;1675539;84;21305;-76
2021/04/03 05:43:30;;;;;;;15.03;8.75;;;;;;;21.59;34.37;156808.81;1728510;82;21375;-74
2021/04/03 05:46:04;;;;;;;15.48;7.97;;;;;;;21.62;34.44;156818.11;1710670;82;21368;-78
2021/04/03 05:48:36;;;;;;;17.50;9.10;;;;;;;21.72;34.34;156844.58;1724609;82;21391;-76
2021/04/03 05:51:09;;;;;;;20.20;9.38;;;;;;;21.90;34.19;156893.56;1707015;82;21249;-77
2021/04/03 05:53:43;;;;;;;21.37;9.25;;;;;;;21.97;34.16;156910.78;1721615;80;21281;-73
2021/04/03 05:56:16;;;;;;;18.75;9.43;;;;;;;21.98;34.17;156913.42;1708511;82;21355;-76
2021/04/03 05:58:49;;;;;;;20.77;9.70;;;;;;;22.04;34.10;156930.64;1774655;79;21319;-76
2021/04/03 06:01:22;;;;;;;20.00;9.88;;;;;;;22.11;34.15;156947.81;1775248;79;21205;-76
2021/04/03 06:03:56;;;;;;;19.85;9.28;;;;;;;22.08;34.35;156939.91;1776970;79;21193;-75
2021/04/03 06:06:30;;;;;;;21.48;10.45;;;;;;;22.35;34.29;157012.77;1774971;79;21256;-75
2021/04/03 06:09:07;;;;;;;19.80;10.00;;;;;;;22.43;34.09;157033.94;1780547;79;21249;-74
2021/04/03 06:11:47;;;;;;;18.20;8.95;;;;;;;22.55;34.03;157065.73;1751600;79;21158;-73
2021/04/03 06:14:20;;;;;;;18.30;9.23;;;;;;;22.62;34.15;157082.95;1781041;78;21241;-73
2021/04/03 06:16:53;;;;;;;16.93;9.58;;;;;;;22.70;34.32;157104.13;1789187;78;21376;-77
2021/04/03 06:19:26;;;;;;;22.13;9.98;;;;;;;22.88;33.98;157154.50;1785693;79;21371;-75
2021/04/03 06:22:00;;;;;;;18.45;9.75;;;;;;;22.98;34.08;157179.66;1789752;79;21397;-76
2021/04/03 06:24:39;;;;;;;30.02;10.80;;;;;;;23.12;33.72;157216.81;1781648;79;21734;-75
2021/04/03 06:27:18;;;;;;;17.95;10.32;;;;;;;23.22;33.77;157243.31;1777610;79;21244;-77
2021/04/03 06:29:52;;;;;;;22.42;10.05;;;;;;;23.34;33.60;157276.47;1776359;78;21202;-76
2021/04/03 06:32:29;;;;;;;17.65;10.13;;;;;;;23.44;33.76;157302.97;1776935;78;21744;-76
2021/04/03 06:35:00;;;;;;;23.25;9.58;;;;;;;23.46;33.94;157308.28;1779941;78;21353;-74
2021/04/03 06:37:35;;;;;;;25.23;10.35;;;;;;;23.67;33.66;157363.94;1780630;78;21205;-75
2021/04/03 06:40:12;;;;;;;17.82;10.20;;;;;;;23.82;33.43;157403.78;1786108;79;21181;-73
2021/04/03 06:42:57;;;;;;;19.57;9.83;;;;;;;23.98;33.29;157446.19;1772709;78;21186;-74
2021/04/03 06:45:32;;;;;;;21.30;9.33;;;;;;;24.03;33.06;157459.47;1781516;79;21253;-75
2021/04/03 06:48:09;;;;;;;21.97;10.28;;;;;;;24.11;33.23;157482.03;1772761;79;21772;-74
2021/04/03 06:50:49;;;;;;;20.77;9.63;;;;;;;24.27;33.13;157524.44;1782971;79;21222;-72
2021/04/03 06:53:22;;;;;;;19.40;9.20;;;;;;;24.37;32.68;157549.66;1782001;79;21803;-74
2021/04/03 06:55:54;;;;;;;25.02;9.45;;;;;;;24.39;32.23;157556.27;1786231;79;21213;-75
2021/04/03 06:58:26;;;;;;;20.32;9.98;;;;;;;24.49;32.05;157582.84;1777117;78;21229;-76
2021/04/03 07:00:59;;;;;;;15.45;8.75;;;;;;;24.55;31.94;157597.44;1780108;78;21704;-74
2021/04/03 07:03:31;;;;;;;19.62;9.05;;;;;;;24.62;32.07;157616.03;1779579;79;21213;-74
2021/04/03 07:06:04;;;;;;;17.70;8.43;;;;;;;24.77;32.37;157657.16;1782068;78;21236;-75
2021/04/03 07:08:38;;;;;;;18.07;10.20;;;;;;;24.85;32.33;157679.72;1781407;79;21807;-76
2021/04/03 07:11:10;;;;;;;18.98;8.45;;;;;;;25.00;32.46;157719.50;1743803;78;21265;-78
2021/04/03 07:13:44;;;;;;;14.38;8.35;;;;;;;25.12;31.66;157750.11;1785576;79;21161;-78
2021/04/03 07:16:20;;;;;;;17.40;8.75;;;;;;;25.20;31.51;157772.69;1780855;78;21277;-75
2021/04/03 07:18:52;;;;;;;17.50;9.08;;;;;;;25.31;31.46;157801.87;1781829;79;22498;-79
2021/04/03 07:21:24;;;;;;;14.93;9.63;;;;;;;25.48;31.59;157847.00;1775538;78;21210;-78
2021/04/03 07:24:00;;;;;;;12.00;6.45;;;;;;;25.62;31.37;157884.17;1773868;79;21237;-73
2021/04/03 07:26:32;;;;;;;12.07;6.12;;;;;;;25.68;30.19;157901.44;1775806;79;21237;-71
2021/04/03 07:29:04;;;;;;;10.60;6.33;;;;;;;25.65;30.20;157892.16;1776676;79;21206;-74
2021/04/03 07:31:44;;;;;;;10.88;5.87;;;;;;;25.69;30.15;157904.09;1778390;78;21755;-74
2021/04/03 07:34:16;;;;;;;10.82;5.97;;;;;;;25.76;29.22;157921.36;1782578;78;21491;-73
2021/04/03 07:36:48;;;;;;;10.98;5.55;;;;;;;25.88;29.05;157954.59;1776857;79;21245;-74
2021/04/03 07:39:39;;;;;;;10.68;5.28;;;;;;;25.93;29.02;157967.89;1777190;78;21251;-74
2021/04/03 07:42:15;;;;;;;9.48;5.15;;;;;;;26.07;28.41;158003.75;1770604;79;21412;-73
2021/04/03 07:44:48;;;;;;;11.28;4.90;;;;;;;26.17;28.37;158030.30;1753233;79;21376;-80
2021/04/03 07:47:23;;;;;;;12.40;4.45;;;;;;;26.26;27.68;158054.25;1778233;79;21225;-77
2021/04/03 07:49:55;;;;;;;8.08;4.42;;;;;;;26.43;27.72;158099.44;1773007;78;21218;-75
2021/04/03 07:52:53;;;;;;;11.63;5.62;;;;;;;26.53;27.92;158126.00;1774324;79;21368;-76
2021/04/03 07:55:37;;;;;;;8.95;4.75;;;;;;;26.67;28.01;158165.89;1776629;78;21681;-74
2021/04/03 07:58:32;;;;;;;8.43;4.37;;;;;;;26.87;27.65;158217.72;1779003;78;21308;-72
2021/04/03 08:01:06;;;;;;;8.10;4.17;;;;;;;26.95;27.68;158238.97;1752462;79;21228;-73
2021/04/03 08:03:39;;;;;;;5.22;3.75;;;;;;;27.09;27.63;158277.56;1722011;80;21376;-74
2021/04/03 08:06:11;;;;;;;6.80;3.42;;;;;;;27.28;27.33;158326.75;1720658;81;21854;-72
2021/04/03 08:08:46;;;;;;;7.47;3.30;;;;;;;27.44;27.27;158370.63;1687747;82;21262;-71
2021/04/03 08:11:19;;;;;;;4.92;3.27;;;;;;;27.65;26.48;158426.56;1719266;81;21206;-73
2021/04/03 08:13:57;;;;;;;8.88;3.67;;;;;;;27.79;26.61;158463.75;1722344;81;21233;-72
2021/04/03 08:16:31;;;;;;;8.25;3.70;;;;;;;27.81;26.10;158469.09;1714144;81;21206;-72
2021/04/03 08:19:05;;;;;;;5.40;3.08;;;;;;;27.84;25.87;158478.39;1715934;81;21804;-78
2021/04/03 08:21:46;;;;;;;6.17;3.30;;;;;;;28.02;25.86;158526.30;1685762;83;21332;-73
2021/04/03 08:24:21;;;;;;;5.22;3.15;;;;;;;28.25;25.87;158587.55;1714762;81;21206;-77
2021/04/03 08:26:54;;;;;;;6.67;3.40;;;;;;;28.58;25.86;158675.36;1685356;84;21360;-73
2021/04/03 08:29:33;;;;;;;4.10;3.27;;;;;;;28.93;25.31;158769.94;1714505;82;21252;-72
2021/04/03 08:32:06;;;;;;;5.83;2.95;;;;;;;29.30;25.82;158868.42;1686152;84;21402;-74
2021/04/03 08:34:43;;;;;;;4.40;2.92;;;;;;;29.69;25.27;158973.67;1686886;82;21331;-73
2021/04/03 08:37:16;;;;;;;5.20;2.80;;;;;;;29.99;25.30;159052.31;1714397;82;21256;-71
2021/04/03 08:39:49;;;;;;;5.05;2.92;;;;;;;30.22;24.70;159113.59;1721084;80;21741;-73
2021/04/03 08:42:22;;;;;;;6.03;3.10;;;;;;;30.30;24.37;159134.95;1722686;81;21967;-72
2021/04/03 08:44:55;;;;;;;3.92;2.70;;;;;;;30.33;24.30;159145.58;1718726;80;21191;-72
2021/04/03 08:47:27;;;;;;;6.65;2.98;;;;;;;30.70;23.64;159242.95;1722561;81;22693;-71
2021/04/03 08:50:00;;;;;;;6.50;2.85;;;;;;;31.48;24.01;159453.64;1722913;81;21284;-75
2021/04/03 08:52:33;;;;;;;5.90;2.83;;;;;;;32.48;23.44;159721.91;1684599;84;21380;-73
2021/04/03 08:55:07;;;;;;;4.17;2.67;;;;;;;33.63;23.07;160029.14;1716247;82;21170;-76
2021/04/03 08:57:39;;;;;;;6.12;2.83;;;;;;;34.23;22.16;160192.20;1693009;84;21344;-73
2021/04/03 09:00:13;;;;;;;7.37;2.85;;;;;;;34.21;22.18;160186.84;1716387;82;21241;-72
2021/04/03 09:02:45;;;;;;;4.72;2.50;;;;;;;34.00;21.90;160128.00;1718703;82;22501;-71
2021/04/03 09:05:18;;;;;;;4.65;2.60;;;;;;;33.91;21.97;160105.28;1768703;79;21356;-71
2021/04/03 09:07:52;;;;;;;3.42;2.47;;;;;;;33.65;22.03;160034.50;1764165;79;21270;-72
2021/04/03 09:10:26;;;;;;;4.45;1.92;;;;;;;33.52;21.64;159999.72;1769370;79;21324;-71
2021/04/03 09:13:00;;;;;;;4.37;2.67;;;;;;;33.44;21.73;159979.67;1772402;79;21321;-73
2021/04/03 09:15:33;;;;;;;6.65;2.27;;;;;;;33.56;22.23;160010.41;1763142;79;21249;-75
2021/04/03 09:18:10;;;;;;;4.72;2.33;;;;;;;33.76;21.57;160063.88;1763444;80;21225;-74
2021/04/03 09:20:52;;;;;;;4.25;2.35;;;;;;;33.84;21.07;160086.59;1733511;80;21209;-75
2021/04/03 09:23:25;;;;;;;4.35;2.40;;;;;;;33.86;21.33;160090.59;1764296;80;21729;-75
2021/04/03 09:26:04;;;;;;;6.53;2.35;;;;;;;33.65;20.35;160035.81;1773398;80;21186;-71
2021/04/03 09:28:39;;;;;;;6.65;2.02;;;;;;;33.33;20.43;159950.30;1773285;80;21217;-74
2021/04/03 09:31:13;;;;;;;4.53;1.95;;;;;;;33.41;20.00;159970.33;1763269;80;21740;-72
2021/04/03 09:33:49;;;;;;;5.10;2.42;;;;;;;33.68;20.28;160043.84;1764013;80;21190;-76
2021/04/03 09:36:23;;;;;;;7.75;2.30;;;;;;;34.22;19.62;160189.52;1765735;79;21206;-73
2021/04/03 09:38:56;;;;;;;6.28;2.50;;;;;;;35.10;19.89;160424.84;1760923;80;21250;-74
2021/04/03 09:41:33;;;;;;;2.77;1.77;;;;;;;35.80;19.36;160613.50;1774861;80;21356;-73
2021/04/03 09:44:06;;;;;;;4.33;1.95;;;;;;;35.77;18.15;160604.09;1768485;79;21653;-74
2021/04/03 09:46:39;;;;;;;3.15;1.55;;;;;;;35.17;18.22;160444.91;1770899;79;21226;-72
2021/04/03 09:49:11;;;;;;;5.65;2.05;;;;;;;34.77;18.45;160335.25;1765513;78;21214;-75
2021/04/03 09:51:44;;;;;;;4.70;2.40;;;;;;;34.67;18.50;160309.84;1765608;78;21274;-72
2021/04/03 09:54:16;;;;;;;6.87;2.08;;;;;;;34.68;18.61;160312.52;1781238;78;21360;-74
2021/04/03 09:56:49;;;;;;;3.75;2.00;;;;;;;34.99;18.89;160394.06;1768600;78;21313;-75
2021/04/03 09:59:21;;;;;;;2.55;1.80;;;;;;;35.55;19.03;160545.25;1770591;78;21182;-75
2021/04/03 10:01:55;;;;;;;6.03;3.00;;;;;;;35.92;18.33;160645.59;1781323;78;21196;-75
2021/04/03 10:04:30;;;;;;;5.90;2.15;;;;;;;36.08;18.50;160688.44;1772723;78;21373;-74
2021/04/03 10:07:03;;;;;;;3.62;1.60;;;;;;;36.84;17.63;160891.92;1770715;79;21878;-71
2021/04/03 10:09:36;;;;;;;1.82;1.47;;;;;;;38.05;17.04;161220.17;1772110;79;21777;-73
2021/04/03 10:12:09;;;;;;;2.72;1.62;;;;;;;38.85;16.53;161433.31;1769889;79;21368;-71
2021/04/03 10:14:43;;;;;;;2.17;1.40;;;;;;;39.08;16.24;161497.70;1770149;79;21820;-74
2021/04/03 10:17:17;;;;;;;3.25;1.95;;;;;;;39.12;15.67;161508.44;1767791;79;21336;-71
2021/04/03 10:19:50;;;;;;;2.65;1.72;;;;;;;38.71;16.05;161395.81;1774047;79;21435;-74
2021/04/03 10:22:23;;;;;;;3.35;1.70;;;;;;;38.24;15.98;161271.12;1762180;79;21178;-70
2021/04/03 10:24:56;;;;;;;3.12;1.62;;;;;;;38.32;16.02;161292.53;1766458;78;21781;-75
2021/04/03 10:27:29;;;;;;;5.47;2.10;;;;;;;38.39;16.08;161311.33;1764337;78;21220;-78
2021/04/03 10:30:02;;;;;;;4.42;1.75;;;;;;;38.29;16.18;161284.53;1765653;78;21730;-72
2021/04/03 10:32:36;;;;;;;4.67;1.50;;;;;;;39.16;16.22;161519.19;1771415;78;21177;-73
2021/04/03 10:35:09;;;;;;;4.50;1.65;;;;;;;40.49;15.71;161876.06;1769466;80;21230;-74
2021/04/03 10:37:42;;;;;;;4.85;2.00;;;;;;;41.15;15.34;162056.00;1769518;80;21349;-74
2021/04/03 10:40:16;;;;;;;102.75;11.93;;;;;;;41.36;15.66;162111.05;1767025;79;21197;-75
2021/04/03 10:42:48;;;;;;;14.05;2.47;;;;;;;41.32;15.49;162100.34;1766005;79;21353;-79
2021/04/03 10:45:21;;;;;;;2.65;1.60;;;;;;;40.87;14.91;161979.44;1766184;80;21821;-75
2021/04/03 10:47:53;;;;;;;2.62;1.50;;;;;;;39.84;15.32;161700.22;1765200;79;21198;-75
2021/04/03 10:50:26;;;;;;;3.85;1.35;;;;;;;38.98;15.41;161470.84;1764384;79;21206;-75
2021/04/03 10:52:58;;;;;;;2.50;1.60;;;;;;;38.43;15.54;161322.02;1762679;80;21713;-74
2021/04/03 10:55:31;;;;;;;3.17;1.67;;;;;;;38.17;15.96;161252.33;1770931;79;21178;-74
2021/04/03 10:58:04;;;;;;;4.03;1.80;;;;;;;38.87;16.13;161440.05;1768217;79;21284;-72
2021/04/03 11:00:37;;;;;;;4.05;1.32;;;;;;;39.42;15.12;161588.86;1770716;79;21222;-80
2021/04/03 11:03:09;;;;;;;2.35;1.30;;;;;;;39.23;15.40;161537.94;1767905;79;21283;-73
2021/04/03 11:05:42;;;;;;;2.25;1.10;;;;;;;38.88;14.76;161442.73;1773442;78;21201;-74
2021/04/03 11:08:16;;;;;;;3.65;1.35;;;;;;;38.87;14.50;161440.05;1785044;79;21150;-71
2021/04/03 11:10:48;;;;;;;2.87;1.25;;;;;;;39.34;14.66;161567.44;1775763;78;21293;-74
2021/04/03 11:13:21;;;;;;;2.65;1.17;;;;;;;39.93;14.55;161727.09;1781677;78;21221;-75
2021/04/03 11:15:54;;;;;;;7.85;1.50;;;;;;;40.65;14.81;161920.34;1773587;79;21316;-76
2021/04/03 11:18:26;;;;;;;2.37;1.15;;;;;;;41.69;14.81;162199.70;1773987;78;21317;-72
2021/04/03 11:21:00;;;;;;;3.37;1.20;;;;;;;42.56;14.38;162434.84;1771922;79;21225;-73
2021/04/03 11:23:33;;;;;;;1.92;1.10;;;;;;;43.17;14.44;162600.28;1772093;79;21761;-74
2021/04/03 11:26:05;;;;;;;8.75;2.75;;;;;;;44.23;13.90;162888.03;1773090;78;21728;-75
2021/04/03 11:28:38;;;;;;;4.12;1.60;;;;;;;45.30;13.62;163176.06;1774103;78;21717;-73
2021/04/03 11:31:11;;;;;;;2.50;1.25;;;;;;;45.85;13.01;163325.56;1780776;79;21218;-75
2021/04/03 11:33:46;;;;;;;6.17;1.30;;;;;;;46.43;12.80;163483.11;1774593;78;21182;-75
2021/04/03 11:36:19;;;;;;;1435.83;763.48;;;;;;;46.63;12.81;163537.06;1775051;79;21598;-73
2021/04/03 11:38:52;;;;;;;273.93;192.18;;;;;;;47.41;13.10;163747.27;1780797;78;21756;-73
2021/04/03 11:41:25;;;;;;;43.05;33.73;;;;;;;48.56;12.88;164060.13;1782957;78;21748;-72
2021/04/03 11:43:59;;;;;;;42.62;31.77;;;;;;;49.57;12.63;164332.59;1776105;78;21190;-74
2021/04/03 11:46:33;;;;;;;52.15;41.75;;;;;;;50.33;12.34;164539.14;1782538;78;21745;-74
2021/04/03 11:49:09;;;;;;;23.40;15.85;;;;;;;50.57;11.94;164603.97;1777043;78;21268;-72
2021/04/03 11:51:42;;;;;;;1676.85;717.92;;;;;;;50.29;11.89;164529.72;1778276;78;21245;-74
2021/04/03 11:54:17;;;;;;;458.55;307.55;;;;;;;50.20;11.95;164504.00;1781501;78;21368;-73
2021/04/03 11:56:52;;;;;;;73.55;51.42;;;;;;;49.87;11.75;164416.30;1775336;78;21195;-75
2021/04/03 11:59:28;;;;;;;24.45;19.35;;;;;;;49.18;11.71;164227.38;1775888;78;21186;-69
2021/04/03 12:02:02;;;;;;;5.20;3.50;;;;;;;48.87;11.80;164143.69;1757537;79;21245;-70
2021/04/03 12:04:38;;;;;;;7.30;2.40;;;;;;;48.21;11.90;163964.39;1772882;78;21268;-71
2021/04/03 12:07:11;;;;;;;4.97;1.90;;;;;;;47.73;12.02;163833.53;1772893;78;21850;-72
2021/04/03 12:09:43;;;;;;;2.75;1.50;;;;;;;47.72;12.25;163832.22;1776593;78;21225;-71
2021/04/03 12:12:16;;;;;;;2.25;1.87;;;;;;;48.12;12.04;163940.05;1774467;78;21261;-71
2021/04/03 12:14:49;;;;;;;32.38;28.83;;;;;;;47.69;11.90;163822.78;1774108;78;21308;-70
2021/04/03 12:17:21;;;;;;;115.17;87.20;;;;;;;47.90;12.21;163882.13;1773100;78;21197;-70
2021/04/03 12:19:53;;;;;;;346.20;301.07;;;;;;;48.52;12.25;164049.27;1775405;78;21673;-72
2021/04/03 12:22:25;;;;;;;18.55;15.05;;;;;;;49.13;12.20;164213.88;1774696;78;21181;-74
2021/04/03 12:24:58;;;;;;;6.85;5.03;;;;;;;48.71;11.46;164100.58;1789188;78;21196;-71
2021/04/03 12:27:32;;;;;;;160.90;141.82;;;;;;;47.17;11.56;163683.94;1775681;78;21249;-76
2021/04/03 12:30:06;;;;;;;607.23;542.37;;;;;;;46.90;11.79;163609.80;1774817;78;21173;-72
2021/04/03 12:32:39;;;;;;;81.40;68.20;;;;;;;45.97;12.70;163359.20;1775954;78;21173;-73
2021/04/03 12:35:12;;;;;;;61.55;46.85;;;;;;;45.97;12.22;163359.20;1772670;78;21756;-74
2021/04/03 12:37:46;;;;;;;11.00;9.35;;;;;;;44.96;12.49;163085.91;1774944;78;22647;-72
2021/04/03 12:40:18;;;;;;;4.45;3.00;;;;;;;44.41;12.69;162935.16;1776764;78;21213;-71
2021/04/03 12:42:50;;;;;;;2.27;1.40;;;;;;;43.76;12.66;162760.25;1777000;79;21840;-71
2021/04/03 12:45:23;;;;;;;2.80;1.45;;;;;;;43.15;12.86;162596.20;1778308;78;21220;-71
2021/04/03 12:47:56;;;;;;;1.95;1.37;;;;;;;43.43;13.21;162671.50;1774426;78;21509;-71
2021/04/03 12:50:29;;;;;;;1.40;1.00;;;;;;;43.43;13.21;162671.50;1780878;78;21875;-74
2021/04/03 12:53:01;;;;;;;1.25;1.07;;;;;;;43.24;13.05;162620.39;1774188;78;21245;-72
2021/04/03 12:55:34;;;;;;;4.10;1.37;;;;;;;43.24;13.05;162620.39;1777178;79;21241;-68
2021/04/03 12:58:07;;;;;;;2.52;1.17;;;;;;;42.93;13.15;162535.72;1778256;78;21816;-71
2021/04/03 13:00:40;;;;;;;1.95;1.20;;;;;;;42.25;13.40;162352.84;1779246;79;21771;-72
2021/04/03 13:03:13;;;;;;;2.42;1.32;;;;;;;41.55;13.51;162163.47;1783598;79;21278;-72
2021/04/03 13:05:45;;;;;;;2.75;1.40;;;;;;;40.77;13.70;161952.61;1783202;78;21192;-72
2021/04/03 13:08:18;;;;;;;6.75;1.62;;;;;;;40.23;13.83;161806.25;1782565;79;21233;-74
2021/04/03 13:10:50;;;;;;;2.85;1.55;;;;;;;39.46;14.05;161599.61;1770353;79;21399;-75
2021/04/03 13:13:22;;;;;;;4.78;1.67;;;;;;;38.96;14.31;161465.47;1771290;79;21225;-72
2021/04/03 13:15:55;;;;;;;2.05;1.40;;;;;;;38.28;14.65;161280.48;1770822;79;21210;-71
2021/04/03 13:18:27;;;;;;;3.15;1.70;;;;;;;37.61;14.92;161099.58;1781968;79;21225;-71
2021/04/03 13:21:00;;;;;;;3.17;1.30;;;;;;;37.18;15.14;160984.33;1775884;79;21372;-73
2021/04/03 13:23:33;;;;;;;1.90;1.45;;;;;;;36.78;15.48;160877.20;1770232;79;21407;-71
2021/04/03 13:26:05;;;;;;;1.65;1.10;;;;;;;36.69;15.85;160853.08;1772539;79;21692;-72
2021/04/03 13:28:39;;;;;;;2.58;1.90;;;;;;;36.58;15.65;160823.62;1775415;79;21764;-72
2021/04/03 13:31:12;;;;;;;2.08;1.35;;;;;;;36.23;15.70;160729.91;1774927;78;21774;-71
2021/04/03 13:33:47;;;;;;;1.98;1.40;;;;;;;35.90;15.96;160640.23;1773231;79;21736;-72
2021/04/03 13:36:21;;;;;;;3.20;1.22;;;;;;;35.69;16.13;160584.06;1769576;79;21372;-73
2021/04/03 13:38:53;;;;;;;2.40;1.22;;;;;;;35.44;16.28;160515.78;1768883;79;21296;-73
2021/04/03 13:41:26;;;;;;;2.60;1.27;;;;;;;35.23;16.66;160460.98;1773563;79;21324;-71
2021/04/03 13:43:58;;;;;;;5.78;1.80;;;;;;;35.44;16.46;160515.78;1780448;79;21835;-72
2021/04/03 13:46:30;;;;;;;1.25;0.80;;;;;;;35.42;16.54;160510.41;1773994;79;21159;-71
2021/04/03 13:49:05;;;;;;;4.58;1.92;;;;;;;35.23;16.48;160459.63;1783031;79;21308;-75
2021/04/03 13:51:38;;;;;;;5.12;1.20;;;;;;;34.97;16.66;160390.03;1770327;79;21430;-71
2021/04/03 13:54:13;;;;;;;2.45;1.32;;;;;;;34.86;16.70;160360.63;1764300;79;21342;-73
2021/04/03 13:56:46;;;;;;;1.50;0.93;;;;;;;34.79;16.84;160341.92;1757799;78;21229;-72
2021/04/03 13:59:18;;;;;;;2.37;1.30;;;;;;;34.70;16.93;160316.50;1767579;78;21222;-71
2021/04/03 14:01:51;;;;;;;2.17;1.00;;;;;;;34.56;16.77;160279.03;1771425;79;21182;-72
2021/04/03 14:04:24;;;;;;;1.60;1.17;;;;;;;34.56;16.81;160279.03;1774024;78;21277;-73
2021/04/03 14:06:56;;;;;;;2.33;1.20;;;;;;;34.49;16.98;160260.33;1771939;79;21217;-74
2021/04/03 14:09:30;;;;;;;3.42;1.20;;;;;;;34.62;16.74;160295.14;1775909;78;21245;-71
2021/04/03 14:12:03;;;;;;;2.83;1.02;;;;;;;34.50;17.05;160264.31;1775021;78;21335;-72
2021/04/03 14:14:35;;;;;;;3.30;1.67;;;;;;;34.31;16.82;160212.25;1772458;79;21382;-71
2021/04/03 14:17:08;;;;;;;4.30;0.93;;;;;;;34.22;16.91;160189.52;1772419;79;21218;-72
2021/04/03 14:19:43;;;;;;;2.27;1.20;;;;;;;34.25;17.04;160196.19;1771053;79;21194;-74
2021/04/03 14:22:16;;;;;;;1.55;0.90;;;;;;;34.06;16.90;160144.02;1770375;79;21871;-72
2021/04/03 14:24:52;;;;;;;2.37;1.42;;;;;;;33.72;17.15;160053.17;1784604;79;21724;-75
2021/04/03 14:27:26;;;;;;;1.80;0.98;;;;;;;33.60;17.39;160021.11;1774520;79;21883;-75
2021/04/03 14:30:00;;;;;;;2.50;1.47;;;;;;;33.41;17.68;159970.33;1770985;79;21208;-73
2021/04/03 14:32:34;;;;;;;3.10;1.40;;;;;;;33.25;17.79;159927.58;1770198;79;22298;-72
2021/04/03 14:35:10;;;;;;;3.47;1.40;;;;;;;33.04;18.08;159870.16;1770218;79;21379;-73
2021/04/03 14:37:42;;;;;;;2.40;1.15;;;;;;;33.04;17.88;159871.45;1777781;79;21721;-74
2021/04/03 14:40:15;;;;;;;4.17;2.37;;;;;;;32.92;17.92;159839.42;1778135;79;21779;-73
2021/04/03 14:42:48;;;;;;;2.83;1.62;;;;;;;32.69;18.04;159776.70;1775159;79;21284;-73
2021/04/03 14:45:21;;;;;;;4.08;1.47;;;;;;;32.68;18.13;159775.34;1771255;79;21273;-73
2021/04/03 14:47:53;;;;;;;3.85;1.55;;;;;;;32.60;18.15;159752.64;1782694;79;21218;-72
2021/04/03 14:50:27;;;;;;;2.50;1.70;;;;;;;32.21;18.51;159647.16;1776381;79;21171;-76
2021/04/03 14:53:00;;;;;;;2.87;2.27;;;;;;;32.19;18.58;159641.81;1779962;79;21313;-72
2021/04/03 14:55:32;;;;;;;2.12;1.45;;;;;;;32.04;18.63;159603.09;1763946;79;21431;-68
2021/04/03 14:58:06;;;;;;;3.55;1.25;;;;;;;31.94;18.87;159576.41;1775090;79;21201;-72
2021/04/03 15:00:42;;;;;;;2.33;1.20;;;;;;;31.79;18.87;159536.38;1788566;79;21908;-72
2021/04/03 15:03:14;;;;;;;2.40;1.77;;;;;;;31.81;19.07;159540.41;1770937;79;21174;-74
2021/04/03 15:05:52;;;;;;;3.25;1.70;;;;;;;31.74;19.26;159523.06;1772674;79;21439;-70
2021/04/03 15:08:25;;;;;;;5.00;1.47;;;;;;;31.84;19.19;159549.73;1740936;79;21374;-71
2021/04/03 15:11:07;;;;;;;2.12;1.32;;;;;;;31.69;19.10;159509.70;1762864;80;21215;-71
2021/04/03 15:13:36;;;;;;;2.35;1.60;;;;;;;31.82;19.22;159543.08;1764055;80;21732;-72
2021/04/03 15:16:09;;;;;;;2.17;1.70;;;;;;;31.52;19.44;159462.97;1771763;79;21213;-72
2021/04/03 15:18:45;;;;;;;4.17;1.65;;;;;;;31.22;19.48;159382.98;1772752;79;21237;-73
2021/04/03 15:21:19;;;;;;;3.52;1.90;;;;;;;31.33;19.33;159413.62;1776181;79;21245;-74
2021/04/03 15:24:00;;;;;;;9.13;2.85;;;;;;;31.10;19.54;159350.98;1768804;79;21230;-72
2021/04/03 15:26:32;;;;;;;3.72;2.20;;;;;;;31.28;19.54;159397.64;1770663;79;22559;-71
2021/04/03 15:29:05;;;;;;;9.35;3.15;;;;;;;31.24;19.55;159388.33;1776502;78;21853;-74
2021/04/03 15:31:40;;;;;;;10.08;5.25;;;;;;;31.19;19.62;159373.66;1771517;79;21351;-75
2021/04/03 15:34:12;;;;;;;12.05;4.83;;;;;;;31.29;19.76;159402.98;1771704;79;21194;-73
2021/04/03 15:36:45;;;;;;;8.58;3.27;;;;;;;31.23;19.84;159385.66;1776250;79;21300;-72
2021/04/03 15:39:20;;;;;;;5.85;2.70;;;;;;;31.29;19.79;159401.63;1777262;79;21179;-71
2021/04/03 15:41:53;;;;;;;4.97;2.20;;;;;;;31.32;19.87;159410.95;1772748;79;21972;-80
2021/04/03 15:44:26;;;;;;;4.85;2.83;;;;;;;31.20;19.97;159376.28;1783764;79;21320;-70
2021/04/03 15:46:58;;;;;;;6.50;2.80;;;;;;;30.94;20.23;159308.25;1779713;79;21245;-73
2021/04/03 15:49:31;;;;;;;3.90;2.22;;;;;;;30.86;20.20;159286.94;1777106;79;21158;-70
2021/04/03 15:52:03;;;;;;;4.22;1.92;;;;;;;30.77;20.38;159262.95;1773857;79;21206;-74
2021/04/03 15:54:38;;;;;;;3.98;1.70;;;;;;;30.79;20.42;159266.92;1781799;78;21843;-72
2021/04/03 15:57:15;;;;;;;5.67;2.30;;;;;;;30.76;20.31;159260.28;1771758;79;22366;-71
2021/04/03 15:59:45;;;;;;;6.20;3.10;;;;;;;30.69;20.37;159241.59;1770601;79;21218;-70
2021/04/03 16:02:19;;;;;;;4.12;2.60;;;;;;;30.67;20.42;159234.94;1726083;79;21823;-72
2021/04/03 16:04:51;;;;;;;6.35;2.77;;;;;;;30.63;20.24;159224.25;1770639;79;21276;-75
2021/04/03 16:07:24;;;;;;;4.80;2.70;;;;;;;30.66;20.23;159233.63;1770897;79;21193;-73
2021/04/03 16:09:58;;;;;;;4.83;2.85;;;;;;;30.75;20.21;159256.25;1769838;79;21261;-70
2021/04/03 16:12:32;;;;;;;5.87;2.72;;;;;;;30.73;20.25;159252.27;1767390;79;21201;-72
2021/04/03 16:15:11;;;;;;;5.62;3.62;;;;;;;30.56;20.37;159206.92;1765364;79;21257;-70
2021/04/03 16:17:46;;;;;;;7.55;4.42;;;;;;;30.49;20.49;159188.30;1771083;80;21230;-69
2021/04/03 16:20:19;;;;;;;10.18;5.15;;;;;;;30.37;20.60;159154.94;1765481;78;21257;-72
2021/04/03 16:22:52;;;;;;;21.23;8.33;;;;;;;30.42;20.57;159168.25;1743689;79;21276;-74
2021/04/03 16:25:25;;;;;;;17.70;9.43;;;;;;;30.16;20.71;159097.63;1763699;78;21193;-71
2021/04/03 16:27:58;;;;;;;23.42;11.85;;;;;;;30.28;20.75;159129.61;1775857;79;21364;-71
2021/04/03 16:30:33;;;;;;;22.58;12.40;;;;;;;30.11;20.89;159085.66;1766414;80;21804;-73
2021/04/03 16:33:08;;;;;;;18.80;11.97;;;;;;;30.01;20.92;159057.66;1763873;80;21693;-72
2021/04/03 16:35:41;;;;;;;16.10;8.83;;;;;;;29.91;20.95;159030.97;1764969;79;21181;-73
2021/04/03 16:38:13;;;;;;;16.90;8.23;;;;;;;29.81;21.12;159004.33;1766461;79;21269;-72
2021/04/03 16:40:47;;;;;;;22.37;10.53;;;;;;;29.51;21.28;158924.44;1763702;80;21230;-72
2021/04/03 16:43:20;;;;;;;34.48;15.32;;;;;;;29.71;21.25;158977.69;1764924;78;21202;-72
2021/04/03 16:45:54;;;;;;;47.73;21.77;;;;;;;29.63;21.28;158956.34;1774915;78;21238;-77